sensor_id;sensor_type;location;lat;lon;timestamp;pressure;altitude;pressure_sealevel;temperature;humidity
7376;BME280;3728;42.266;24.944;2023-07-02T00:00:41;98754.13;;;22.26;100.00
7376;BME280;3728;42.266;24.944;2023-07-02T00:03:09;98751.53;;;22.19;100.00
7376;BME280;3728;42.266;24.944;2023-07-02T00:05:37;98744.69;;;22.18;100.00
7376;BME280;3728;42.266;24.944;2023-07-02T00:08:05;98743.16;;;22.21;100.00
7376;BME280;3728;42.266;24.944;2023-07-02T00:10:34;98742.69;;;22.26;100.00
7376;BME280;3728;42.266;24.944;2023-07-02T00:13:02;98750.38;;;22.20;100.00
7376;BME280;3728;42.266;24.944;2023-07-02T00:15:30;98752.63;;;22.25;100.00
7376;BME280;3728;42.266;24.944;2023-07-02T00:17:58;98745.41;;;22.19;100.00
7376;BME280;3728;42.266;24.944;2023-07-02T00:20:26;98748.56;;;22.10;100.00
7376;BME280;3728;42.266;24.944;2023-07-02T00:22:54;98750.09;;;22.11;100.00
7376;BME280;3728;42.266;24.944;2023-07-02T00:25:23;98748.97;;;22.05;100.00
7376;BME280;3728;42.266;24.944;2023-07-02T00:27:51;98753.34;;;22.26;100.00
7376;BME280;3728;42.266;24.944;2023-07-02T00:30:18;98748.44;;;22.24;100.00
7376;BME280;3728;42.266;24.944;2023-07-02T00:32:47;98741.34;;;22.07;100.00
7376;BME280;3728;42.266;24.944;2023-07-02T00:35:15;98734.47;;;22.10;100.00
7376;BME280;3728;42.266;24.944;2023-07-02T00:40:11;98747.72;;;22.20;100.00
7376;BME280;3728;42.266;24.944;2023-07-02T00:42:39;98747.72;;;22.20;100.00
7376;BME280;3728;42.266;24.944;2023-07-02T00:45:08;98744.97;;;22.27;100.00
7376;BME280;3728;42.266;24.944;2023-07-02T00:50:04;98748.22;;;22.45;100.00
7376;BME280;3728;42.266;24.944;2023-07-02T00:52:33;98751.38;;;22.37;100.00
7376;BME280;3728;42.266;24.944;2023-07-02T00:55:02;98752.97;;;22.27;100.00
7376;BME280;3728;42.266;24.944;2023-07-02T00:57:30;98762.00;;;22.00;100.00
7376;BME280;3728;42.266;24.944;2023-07-02T01:00:00;98757.25;;;22.59;100.00
7376;BME280;3728;42.266;24.944;2023-07-02T01:02:30;98755.66;;;22.27;100.00
7376;BME280;3728;42.266;24.944;2023-07-02T01:05:00;98746.63;;;22.14;100.00
7376;BME280;3728;42.266;24.944;2023-07-02T01:07:29;98744.31;;;22.16;100.00
7376;BME280;3728;42.266;24.944;2023-07-02T01:09:57;98745.56;;;22.45;100.00
7376;BME280;3728;42.266;24.944;2023-07-02T01:12:26;98738.91;;;22.23;100.00
7376;BME280;3728;42.266;24.944;2023-07-02T01:14:57;98743.03;;;21.87;100.00
7376;BME280;3728;42.266;24.944;2023-07-02T01:17:32;98739.44;;;21.53;100.00
7376;BME280;3728;42.266;24.944;2023-07-02T01:20:05;98738.34;;;21.47;100.00
7376;BME280;3728;42.266;24.944;2023-07-02T01:22:36;98746.75;;;21.42;100.00
7376;BME280;3728;42.266;24.944;2023-07-02T01:25:05;98739.47;;;21.49;100.00
7376;BME280;3728;42.266;24.944;2023-07-02T01:27:36;98736.72;;;21.63;100.00
7376;BME280;3728;42.266;24.944;2023-07-02T01:30:07;98737.53;;;21.57;100.00
7376;BME280;3728;42.266;24.944;2023-07-02T01:32:37;98734.81;;;21.64;100.00
7376;BME280;3728;42.266;24.944;2023-07-02T01:35:06;98737.03;;;21.76;100.00
7376;BME280;3728;42.266;24.944;2023-07-02T01:37:36;98732.81;;;21.75;100.00
7376;BME280;3728;42.266;24.944;2023-07-02T01:40:06;98727.84;;;21.77;100.00
7376;BME280;3728;42.266;24.944;2023-07-02T01:42:37;98730.94;;;21.75;100.00
7376;BME280;3728;42.266;24.944;2023-07-02T01:45:06;98739.25;;;21.81;100.00
7376;BME280;3728;42.266;24.944;2023-07-02T01:47:35;98743.09;;;21.76;100.00
7376;BME280;3728;42.266;24.944;2023-07-02T01:50:04;98735.44;;;21.82;100.00
7376;BME280;3728;42.266;24.944;2023-07-02T01:52:33;98738.16;;;21.75;100.00
7376;BME280;3728;42.266;24.944;2023-07-02T01:55:02;98737.38;;;21.78;100.00
7376;BME280;3728;42.266;24.944;2023-07-02T01:57:30;98735.53;;;21.68;100.00
7376;BME280;3728;42.266;24.944;2023-07-02T01:59:58;98733.22;;;21.73;100.00
7376;BME280;3728;42.266;24.944;2023-07-02T02:02:26;98737.84;;;21.66;100.00
7376;BME280;3728;42.266;24.944;2023-07-02T02:04:54;98740.56;;;21.55;100.00
7376;BME280;3728;42.266;24.944;2023-07-02T02:07:23;98728.47;;;21.44;100.00
7376;BME280;3728;42.266;24.944;2023-07-02T02:09:53;98725.31;;;21.63;100.00
7376;BME280;3728;42.266;24.944;2023-07-02T02:12:20;98733.78;;;21.47;100.00
7376;BME280;3728;42.266;24.944;2023-07-02T02:14:49;98738.81;;;21.38;100.00
7376;BME280;3728;42.266;24.944;2023-07-02T02:17:19;98738.09;;;21.31;100.00
7376;BME280;3728;42.266;24.944;2023-07-02T02:19:47;98728.59;;;21.26;100.00
7376;BME280;3728;42.266;24.944;2023-07-02T02:22:16;98730.91;;;21.24;100.00
7376;BME280;3728;42.266;24.944;2023-07-02T02:24:43;98731.63;;;21.25;100.00
7376;BME280;3728;42.266;24.944;2023-07-02T02:27:12;98731.63;;;21.25;100.00
7376;BME280;3728;42.266;24.944;2023-07-02T02:29:40;98736.97;;;21.25;100.00
7376;BME280;3728;42.266;24.944;2023-07-02T02:32:08;98739.59;;;21.32;100.00
7376;BME280;3728;42.266;24.944;2023-07-02T02:34:37;98736.50;;;21.40;100.00
7376;BME280;3728;42.266;24.944;2023-07-02T02:37:06;98739.91;;;21.44;100.00
7376;BME280;3728;42.266;24.944;2023-07-02T02:39:34;98747.78;;;21.58;100.00
7376;BME280;3728;42.266;24.944;2023-07-02T02:42:03;98739.44;;;21.53;100.00
7376;BME280;3728;42.266;24.944;2023-07-02T02:44:32;98737.53;;;21.53;100.00
7376;BME280;3728;42.266;24.944;2023-07-02T02:47:00;98734.06;;;21.60;100.00
7376;BME280;3728;42.266;24.944;2023-07-02T02:49:29;98738.66;;;21.59;100.00
7376;BME280;3728;42.266;24.944;2023-07-02T02:51:59;98743.97;;;21.63;100.00
7376;BME280;3728;42.266;24.944;2023-07-02T02:54:27;98746.25;;;21.61;100.00
7376;BME280;3728;42.266;24.944;2023-07-02T02:56:55;98762.25;;;21.61;100.00
7376;BME280;3728;42.266;24.944;2023-07-02T02:59:23;98772.19;;;21.57;100.00
7376;BME280;3728;42.266;24.944;2023-07-02T03:01:51;98771.13;;;21.37;100.00
7376;BME280;3728;42.266;24.944;2023-07-02T03:04:19;98768.47;;;21.37;100.00
7376;BME280;3728;42.266;24.944;2023-07-02T03:06:51;98760.84;;;21.42;100.00
7376;BME280;3728;42.266;24.944;2023-07-02T03:09:19;98765.41;;;21.42;100.00
7376;BME280;3728;42.266;24.944;2023-07-02T03:11:48;98774.59;;;21.34;100.00
7376;BME280;3728;42.266;24.944;2023-07-02T03:14:17;98775.22;;;21.59;100.00
7376;BME280;3728;42.266;24.944;2023-07-02T03:16:45;98775.09;;;21.73;100.00
7376;BME280;3728;42.266;24.944;2023-07-02T03:19:13;98785.47;;;21.64;100.00
7376;BME280;3728;42.266;24.944;2023-07-02T03:21:45;98780.09;;;21.71;100.00
7376;BME280;3728;42.266;24.944;2023-07-02T03:24:13;98785.50;;;21.57;100.00
7376;BME280;3728;42.266;24.944;2023-07-02T03:26:43;98775.13;;;21.69;100.00
7376;BME280;3728;42.266;24.944;2023-07-02T03:29:11;98789.16;;;21.77;100.00
7376;BME280;3728;42.266;24.944;2023-07-02T03:31:39;98787.25;;;21.77;100.00
7376;BME280;3728;42.266;24.944;2023-07-02T03:34:09;98791.00;;;21.83;100.00
7376;BME280;3728;42.266;24.944;2023-07-02T03:36:38;98786.47;;;21.84;100.00
7376;BME280;3728;42.266;24.944;2023-07-02T03:39:05;98785.31;;;21.89;100.00
7376;BME280;3728;42.266;24.944;2023-07-02T03:41:39;98799.66;;;22.05;100.00
7376;BME280;3728;42.266;24.944;2023-07-02T03:44:07;98805.75;;;22.02;100.00
7376;BME280;3728;42.266;24.944;2023-07-02T03:46:35;98807.28;;;22.03;100.00
7376;BME280;3728;42.266;24.944;2023-07-02T03:49:03;98818.00;;;21.96;100.00
7376;BME280;3728;42.266;24.944;2023-07-02T03:51:32;98815.38;;;21.89;100.00
7376;BME280;3728;42.266;24.944;2023-07-02T03:54:00;98819.09;;;22.02;100.00
7376;BME280;3728;42.266;24.944;2023-07-02T03:56:28;98819.94;;;21.92;100.00
7376;BME280;3728;42.266;24.944;2023-07-02T03:58:56;98813.41;;;22.00;100.00
7376;BME280;3728;42.266;24.944;2023-07-02T04:01:24;98803.84;;;22.03;100.00
7376;BME280;3728;42.266;24.944;2023-07-02T04:03:54;98811.03;;;22.13;100.00
7376;BME280;3728;42.266;24.944;2023-07-02T04:06:23;98813.75;;;22.02;100.00
7376;BME280;3728;42.266;24.944;2023-07-02T04:08:51;98815.31;;;22.00;100.00
7376;BME280;3728;42.266;24.944;2023-07-02T04:11:20;98812.63;;;22.03;100.00
7376;BME280;3728;42.266;24.944;2023-07-02T04:13:47;98819.22;;;21.85;100.00
7376;BME280;3728;42.266;24.944;2023-07-02T04:16:16;98816.31;;;21.61;100.00
7376;BME280;3728;42.266;24.944;2023-07-02T04:18:44;98809.06;;;21.62;100.00
7376;BME280;3728;42.266;24.944;2023-07-02T04:21:12;98816.59;;;21.77;100.00
7376;BME280;3728;42.266;24.944;2023-07-02T04:23:40;98808.63;;;21.67;100.00
7376;BME280;3728;42.266;24.944;2023-07-02T04:26:09;98812.78;;;21.78;100.00
7376;BME280;3728;42.266;24.944;2023-07-02T04:28:58;98823.09;;;21.73;100.00
7376;BME280;3728;42.266;24.944;2023-07-02T04:31:26;98813.16;;;21.77;100.00
7376;BME280;3728;42.266;24.944;2023-07-02T04:33:54;98813.81;;;21.99;100.00
7376;BME280;3728;42.266;24.944;2023-07-02T04:36:22;98816.44;;;22.02;100.00
7376;BME280;3728;42.266;24.944;2023-07-02T04:38:50;98829.34;;;22.07;100.00
7376;BME280;3728;42.266;24.944;2023-07-02T04:41:18;98823.66;;;22.05;100.00
7376;BME280;3728;42.266;24.944;2023-07-02T04:43:47;98823.28;;;22.07;100.00
7376;BME280;3728;42.266;24.944;2023-07-02T04:46:15;98825.38;;;22.26;100.00
7376;BME280;3728;42.266;24.944;2023-07-02T04:48:45;98834.06;;;22.37;100.00
7376;BME280;3728;42.266;24.944;2023-07-02T04:51:13;98827.78;;;22.58;100.00
7376;BME280;3728;42.266;24.944;2023-07-02T04:53:42;98829.09;;;22.39;100.00
7376;BME280;3728;42.266;24.944;2023-07-02T04:56:10;98832.66;;;22.25;100.00
7376;BME280;3728;42.266;24.944;2023-07-02T04:58:38;98838.41;;;22.65;100.00
7376;BME280;3728;42.266;24.944;2023-07-02T05:01:06;98843.63;;;22.75;100.00
7376;BME280;3728;42.266;24.944;2023-07-02T05:03:34;98831.50;;;22.71;100.00
7376;BME280;3728;42.266;24.944;2023-07-02T05:06:04;98835.38;;;22.59;100.00
7376;BME280;3728;42.266;24.944;2023-07-02T05:08:32;98848.47;;;22.46;100.00
7376;BME280;3728;42.266;24.944;2023-07-02T05:11:00;98854.44;;;22.61;100.00
7376;BME280;3728;42.266;24.944;2023-07-02T05:13:28;98865.13;;;23.02;100.00
7376;BME280;3728;42.266;24.944;2023-07-02T05:15:56;98872.56;;;22.84;100.00
7376;BME280;3728;42.266;24.944;2023-07-02T05:18:23;98885.94;;;23.17;100.00
7376;BME280;3728;42.266;24.944;2023-07-02T05:20:51;98885.91;;;23.21;100.00
7376;BME280;3728;42.266;24.944;2023-07-02T05:23:19;98886.25;;;23.87;100.00
7376;BME280;3728;42.266;24.944;2023-07-02T05:25:47;98889.03;;;23.76;100.00
7376;BME280;3728;42.266;24.944;2023-07-02T05:28:15;98881.03;;;23.46;100.00
7376;BME280;3728;42.266;24.944;2023-07-02T05:30:43;98881.25;;;23.29;100.00
7376;BME280;3728;42.266;24.944;2023-07-02T05:33:11;98872.22;;;23.15;100.00
7376;BME280;3728;42.266;24.944;2023-07-02T05:35:40;98868.69;;;22.88;100.00
7376;BME280;3728;42.266;24.944;2023-07-02T05:38:09;98871.16;;;22.69;100.00
7376;BME280;3728;42.266;24.944;2023-07-02T05:40:37;98879.03;;;23.20;100.00
7376;BME280;3728;42.266;24.944;2023-07-02T05:43:05;98887.81;;;22.87;100.00
7376;BME280;3728;42.266;24.944;2023-07-02T05:48:51;98869.31;;;22.66;100.00
7376;BME280;3728;42.266;24.944;2023-07-02T05:51:22;98867.34;;;22.70;100.00
7376;BME280;3728;42.266;24.944;2023-07-02T05:53:52;98885.97;;;23.14;100.00
7376;BME280;3728;42.266;24.944;2023-07-02T05:56:19;98890.00;;;23.63;100.00
7376;BME280;3728;42.266;24.944;2023-07-02T05:58:48;98898.69;;;23.40;100.00
7376;BME280;3728;42.266;24.944;2023-07-02T06:01:17;98906.81;;;23.63;100.00
7376;BME280;3728;42.266;24.944;2023-07-02T06:03:49;98907.78;;;23.46;100.00
7376;BME280;3728;42.266;24.944;2023-07-02T06:06:18;98914.03;;;23.36;100.00
7376;BME280;3728;42.266;24.944;2023-07-02T06:08:47;98908.31;;;23.31;100.00
7376;BME280;3728;42.266;24.944;2023-07-02T06:11:17;98918.38;;;23.53;100.00
7376;BME280;3728;42.266;24.944;2023-07-02T06:13:45;98918.38;;;23.20;100.00
7376;BME280;3728;42.266;24.944;2023-07-02T06:16:13;98925.75;;;23.05;100.00
7376;BME280;3728;42.266;24.944;2023-07-02T06:18:43;98907.69;;;22.79;100.00
7376;BME280;3728;42.266;24.944;2023-07-02T06:21:11;98883.72;;;22.72;100.00
7376;BME280;3728;42.266;24.944;2023-07-02T06:23:42;98873.41;;;22.77;100.00
7376;BME280;3728;42.266;24.944;2023-07-02T06:26:13;98877.31;;;22.66;100.00
7376;BME280;3728;42.266;24.944;2023-07-02T06:28:46;98893.22;;;23.17;100.00
7376;BME280;3728;42.266;24.944;2023-07-02T06:31:15;98872.84;;;22.93;100.00
7376;BME280;3728;42.266;24.944;2023-07-02T06:33:44;98861.31;;;22.66;100.00
7376;BME280;3728;42.266;24.944;2023-07-02T06:36:12;98867.94;;;22.88;100.00
7376;BME280;3728;42.266;24.944;2023-07-02T06:38:43;98866.28;;;22.57;100.00
7376;BME280;3728;42.266;24.944;2023-07-02T06:41:11;98873.88;;;22.65;100.00
7376;BME280;3728;42.266;24.944;2023-07-02T06:43:41;98868.22;;;22.56;100.00
7376;BME280;3728;42.266;24.944;2023-07-02T06:46:11;98861.66;;;22.68;100.00
7376;BME280;3728;42.266;24.944;2023-07-02T06:48:39;98869.56;;;22.78;100.00
7376;BME280;3728;42.266;24.944;2023-07-02T06:51:06;98855.50;;;22.74;100.00
7376;BME280;3728;42.266;24.944;2023-07-02T06:53:35;98856.75;;;23.00;100.00
7376;BME280;3728;42.266;24.944;2023-07-02T06:56:04;98849.06;;;23.39;100.00
7376;BME280;3728;42.266;24.944;2023-07-02T06:58:36;98849.25;;;23.82;100.00
7376;BME280;3728;42.266;24.944;2023-07-02T07:01:06;98854.91;;;23.88;100.00
7376;BME280;3728;42.266;24.944;2023-07-02T07:03:35;98864.53;;;24.12;100.00
7376;BME280;3728;42.266;24.944;2023-07-02T07:06:05;98864.41;;;24.19;100.00
7376;BME280;3728;42.266;24.944;2023-07-02T07:08:32;98863.81;;;24.31;100.00
7376;BME280;3728;42.266;24.944;2023-07-02T07:11:03;98865.16;;;24.42;100.00
7376;BME280;3728;42.266;24.944;2023-07-02T07:13:30;98869.19;;;24.54;100.00
7376;BME280;3728;42.266;24.944;2023-07-02T07:15:58;98874.22;;;24.95;100.00
7376;BME280;3728;42.266;24.944;2023-07-02T07:18:26;98869.16;;;25.00;100.00
7376;BME280;3728;42.266;24.944;2023-07-02T07:20:57;98882.53;;;25.00;100.00
7376;BME280;3728;42.266;24.944;2023-07-02T07:23:25;98878.00;;;24.97;100.00
7376;BME280;3728;42.266;24.944;2023-07-02T07:25:52;98882.00;;;25.09;100.00
7376;BME280;3728;42.266;24.944;2023-07-02T07:28:20;98879.22;;;24.93;100.00
7376;BME280;3728;42.266;24.944;2023-07-02T07:30:48;98873.66;;;24.84;100.00
7376;BME280;3728;42.266;24.944;2023-07-02T07:33:16;98869.47;;;24.83;100.00
7376;BME280;3728;42.266;24.944;2023-07-02T07:35:44;98871.63;;;25.11;100.00
7376;BME280;3728;42.266;24.944;2023-07-02T07:38:13;98863.94;;;25.13;100.00
7376;BME280;3728;42.266;24.944;2023-07-02T07:40:44;98866.69;;;25.09;100.00
7376;BME280;3728;42.266;24.944;2023-07-02T07:43:15;98870.59;;;25.25;98.69
7376;BME280;3728;42.266;24.944;2023-07-02T07:45:43;98875.50;;;25.65;94.15
7376;BME280;3728;42.266;24.944;2023-07-02T07:48:10;98874.66;;;25.52;93.78
7376;BME280;3728;42.266;24.944;2023-07-02T07:50:38;98873.00;;;25.39;99.68
7376;BME280;3728;42.266;24.944;2023-07-02T07:53:05;98877.06;;;25.47;99.27
7376;BME280;3728;42.266;24.944;2023-07-02T07:55:33;98870.88;;;25.50;95.33
7376;BME280;3728;42.266;24.944;2023-07-02T07:58:01;98863.03;;;25.59;96.21
7376;BME280;3728;42.266;24.944;2023-07-02T08:00:28;98862.50;;;25.48;97.31
7376;BME280;3728;42.266;24.944;2023-07-02T08:02:56;98862.50;;;25.48;98.13
7376;BME280;3728;42.266;24.944;2023-07-02T08:05:24;98858.81;;;25.58;96.09
7376;BME280;3728;42.266;24.944;2023-07-02T08:07:52;98854.63;;;25.57;94.67
7376;BME280;3728;42.266;24.944;2023-07-02T08:10:20;98852.31;;;25.75;94.79
7376;BME280;3728;42.266;24.944;2023-07-02T08:12:48;98842.34;;;25.92;91.46
7376;BME280;3728;42.266;24.944;2023-07-02T08:15:19;98843.81;;;26.12;87.81
7376;BME280;3728;42.266;24.944;2023-07-02T08:17:46;98845.97;;;26.33;84.18
7376;BME280;3728;42.266;24.944;2023-07-02T08:20:14;98850.78;;;26.42;83.34
7376;BME280;3728;42.266;24.944;2023-07-02T08:22:43;98848.63;;;26.66;81.01
7376;BME280;3728;42.266;24.944;2023-07-02T08:25:11;98854.84;;;26.63;81.37
7376;BME280;3728;42.266;24.944;2023-07-02T08:27:41;98850.88;;;26.83;79.52
7376;BME280;3728;42.266;24.944;2023-07-02T08:30:10;98845.16;;;27.10;81.01
7376;BME280;3728;42.266;24.944;2023-07-02T08:32:38;98855.31;;;27.31;77.50
7376;BME280;3728;42.266;24.944;2023-07-02T08:35:06;98859.19;;;27.30;73.92
7376;BME280;3728;42.266;24.944;2023-07-02T08:37:34;98854.28;;;27.54;73.70
7376;BME280;3728;42.266;24.944;2023-07-02T08:40:18;98852.69;;;27.56;74.75
7376;BME280;3728;42.266;24.944;2023-07-02T08:42:46;98846.78;;;27.74;73.91
7376;BME280;3728;42.266;24.944;2023-07-02T08:45:15;98849.91;;;27.98;72.08
7376;BME280;3728;42.266;24.944;2023-07-02T08:47:44;98849.56;;;28.21;69.65
7376;BME280;3728;42.266;24.944;2023-07-02T08:50:12;98847.72;;;28.18;69.29
7376;BME280;3728;42.266;24.944;2023-07-02T08:52:40;98846.09;;;28.33;67.14
7376;BME280;3728;42.266;24.944;2023-07-02T08:55:12;98850.50;;;28.27;65.12
7376;BME280;3728;42.266;24.944;2023-07-02T08:57:41;98854.91;;;28.33;69.93
7376;BME280;3728;42.266;24.944;2023-07-02T09:00:21;98848.66;;;28.36;64.76
7376;BME280;3728;42.266;24.944;2023-07-02T09:02:49;98849.72;;;28.52;66.70
7376;BME280;3728;42.266;24.944;2023-07-02T09:05:16;98851.94;;;28.53;67.12
7376;BME280;3728;42.266;24.944;2023-07-02T09:07:49;98851.63;;;28.85;63.54
7376;BME280;3728;42.266;24.944;2023-07-02T09:13:05;98851.53;;;29.63;56.64
7376;BME280;3728;42.266;24.944;2023-07-02T09:15:40;98849.41;;;29.27;62.36
7376;BME280;3728;42.266;24.944;2023-07-02T09:18:15;98845.50;;;29.59;62.30
7376;BME280;3728;42.266;24.944;2023-07-02T09:20:46;98838.44;;;29.52;59.60
7376;BME280;3728;42.266;24.944;2023-07-02T09:23:17;98834.75;;;29.37;60.37
7376;BME280;3728;42.266;24.944;2023-07-02T09:25:44;98828.88;;;29.08;63.84
7376;BME280;3728;42.266;24.944;2023-07-02T09:28:20;98829.84;;;29.45;60.11
7376;BME280;3728;42.266;24.944;2023-07-02T09:30:55;98832.50;;;28.92;63.44
7376;BME280;3728;42.266;24.944;2023-07-02T09:33:28;98839.34;;;28.84;61.99
7376;BME280;3728;42.266;24.944;2023-07-02T09:35:58;98837.91;;;28.92;61.39
7376;BME280;3728;42.266;24.944;2023-07-02T09:38:26;98829.25;;;28.97;60.63
7376;BME280;3728;42.266;24.944;2023-07-02T09:40:54;98830.78;;;28.98;62.10
7376;BME280;3728;42.266;24.944;2023-07-02T09:43:22;98832.97;;;28.91;60.74
7376;BME280;3728;42.266;24.944;2023-07-02T09:45:54;98826.56;;;28.97;63.18
7376;BME280;3728;42.266;24.944;2023-07-02T09:48:24;98824.06;;;29.03;61.81
7376;BME280;3728;42.266;24.944;2023-07-02T09:50:53;98830.66;;;28.80;61.52
7376;BME280;3728;42.266;24.944;2023-07-02T09:53:23;98820.03;;;28.64;64.93
7376;BME280;3728;42.266;24.944;2023-07-02T09:55:52;98828.47;;;28.66;62.38
7376;BME280;3728;42.266;24.944;2023-07-02T09:58:20;98832.09;;;28.94;60.67
7376;BME280;3728;42.266;24.944;2023-07-02T10:00:48;98826.31;;;28.61;61.75
7376;BME280;3728;42.266;24.944;2023-07-02T10:03:28;98825.56;;;29.04;62.03
7376;BME280;3728;42.266;24.944;2023-07-02T10:06:06;98834.69;;;29.06;62.40
7376;BME280;3728;42.266;24.944;2023-07-02T10:08:34;98841.91;;;29.09;65.01
7376;BME280;3728;42.266;24.944;2023-07-02T10:11:11;98830.81;;;29.60;60.94
7376;BME280;3728;42.266;24.944;2023-07-02T10:13:40;98835.28;;;29.54;60.18
7376;BME280;3728;42.266;24.944;2023-07-02T10:16:08;98825.03;;;29.40;58.60
7376;BME280;3728;42.266;24.944;2023-07-02T10:18:35;98827.94;;;29.54;60.58
7376;BME280;3728;42.266;24.944;2023-07-02T10:21:21;98824.78;;;29.87;57.65
7376;BME280;3728;42.266;24.944;2023-07-02T10:23:49;98820.13;;;29.87;57.94
7376;BME280;3728;42.266;24.944;2023-07-02T10:26:18;98830.69;;;29.72;60.04
7376;BME280;3728;42.266;24.944;2023-07-02T10:28:59;98830.03;;;29.90;57.28
7376;BME280;3728;42.266;24.944;2023-07-02T10:31:27;98831.44;;;29.64;58.34
7376;BME280;3728;42.266;24.944;2023-07-02T10:33:55;98828.09;;;29.51;60.74
7376;BME280;3728;42.266;24.944;2023-07-02T10:36:43;98816.81;;;29.43;63.90
7376;BME280;3728;42.266;24.944;2023-07-02T10:39:14;98823.97;;;29.37;63.63
7376;BME280;3728;42.266;24.944;2023-07-02T10:41:41;98838.50;;;28.87;64.89
7376;BME280;3728;42.266;24.944;2023-07-02T10:44:09;98825.69;;;28.79;65.96
7376;BME280;3728;42.266;24.944;2023-07-02T10:46:47;98818.47;;;28.41;71.55
7376;BME280;3728;42.266;24.944;2023-07-02T10:49:17;98825.44;;;28.17;72.06
7376;BME280;3728;42.266;24.944;2023-07-02T10:52:05;98822.47;;;28.03;73.36
7376;BME280;3728;42.266;24.944;2023-07-02T10:57:18;98816.44;;;27.48;76.45
7376;BME280;3728;42.266;24.944;2023-07-02T10:59:50;98811.31;;;27.25;76.60
7376;BME280;3728;42.266;24.944;2023-07-02T11:02:18;98813.16;;;27.16;79.35
7376;BME280;3728;42.266;24.944;2023-07-02T11:04:46;98808.25;;;26.98;79.13
7376;BME280;3728;42.266;24.944;2023-07-02T11:07:22;98804.78;;;26.85;82.91
7376;BME280;3728;42.266;24.944;2023-07-02T11:09:51;98804.25;;;26.90;85.88
7376;BME280;3728;42.266;24.944;2023-07-02T11:12:27;98802.69;;;27.05;85.31
7376;BME280;3728;42.266;24.944;2023-07-02T11:15:07;98804.41;;;26.99;85.05
7376;BME280;3728;42.266;24.944;2023-07-02T11:17:37;98807.41;;;27.13;83.20
7376;BME280;3728;42.266;24.944;2023-07-02T11:20:11;98816.56;;;27.03;83.38
7376;BME280;3728;42.266;24.944;2023-07-02T11:22:40;98816.59;;;26.59;85.67
7376;BME280;3728;42.266;24.944;2023-07-02T11:25:19;98817.22;;;26.34;91.27
7376;BME280;3728;42.266;24.944;2023-07-02T11:27:47;98810.41;;;26.74;89.74
7376;BME280;3728;42.266;24.944;2023-07-02T11:30:14;98800.59;;;26.68;87.77
7376;BME280;3728;42.266;24.944;2023-07-02T11:32:49;98797.91;;;26.39;86.49
7376;BME280;3728;42.266;24.944;2023-07-02T11:35:19;98799.66;;;26.45;85.25
7376;BME280;3728;42.266;24.944;2023-07-02T11:38:09;98799.53;;;26.65;83.62
7376;BME280;3728;42.266;24.944;2023-07-02T11:40:37;98801.34;;;26.39;89.05
7376;BME280;3728;42.266;24.944;2023-07-02T11:43:06;98796.50;;;26.34;87.26
7376;BME280;3728;42.266;24.944;2023-07-02T11:45:34;98804.25;;;26.61;85.71
7376;BME280;3728;42.266;24.944;2023-07-02T11:48:04;98802.03;;;27.01;82.51
7376;BME280;3728;42.266;24.944;2023-07-02T11:50:32;98796.44;;;27.08;81.47
7376;BME280;3728;42.266;24.944;2023-07-02T11:53:02;98802.28;;;27.19;80.71
7376;BME280;3728;42.266;24.944;2023-07-02T11:55:30;98788.78;;;26.94;82.59
7376;BME280;3728;42.266;24.944;2023-07-02T11:58:04;98783.59;;;26.58;86.69
7376;BME280;3728;42.266;24.944;2023-07-02T12:00:31;98785.66;;;26.67;85.91
7376;BME280;3728;42.266;24.944;2023-07-02T12:02:59;98795.06;;;27.16;79.57
7376;BME280;3728;42.266;24.944;2023-07-02T12:05:28;98801.84;;;27.33;76.99
7376;BME280;3728;42.266;24.944;2023-07-02T12:07:55;98798.06;;;27.05;80.52
7376;BME280;3728;42.266;24.944;2023-07-02T12:10:23;98795.38;;;27.05;81.02
7376;BME280;3728;42.266;24.944;2023-07-02T12:12:52;98786.78;;;27.10;77.69
7376;BME280;3728;42.266;24.944;2023-07-02T12:15:20;98786.75;;;26.98;78.19
7376;BME280;3728;42.266;24.944;2023-07-02T12:17:48;98793.88;;;27.17;80.02
7376;BME280;3728;42.266;24.944;2023-07-02T12:20:16;98791.00;;;27.24;78.02
7376;BME280;3728;42.266;24.944;2023-07-02T12:22:43;98787.78;;;27.42;75.57
7376;BME280;3728;42.266;24.944;2023-07-02T12:25:12;98784.22;;;27.20;74.17
7376;BME280;3728;42.266;24.944;2023-07-02T12:27:40;98772.47;;;27.26;75.03
7376;BME280;3728;42.266;24.944;2023-07-02T12:30:08;98777.59;;;27.62;71.34
7376;BME280;3728;42.266;24.944;2023-07-02T12:32:38;98774.75;;;27.65;73.58
7376;BME280;3728;42.266;24.944;2023-07-02T12:35:07;98785.13;;;27.54;75.74
7376;BME280;3728;42.266;24.944;2023-07-02T12:37:35;98772.53;;;27.64;73.89
7376;BME280;3728;42.266;24.944;2023-07-02T12:40:11;98766.59;;;27.56;74.15
7376;BME280;3728;42.266;24.944;2023-07-02T12:42:41;98761.44;;;27.49;74.86
7376;BME280;3728;42.266;24.944;2023-07-02T12:45:10;98761.44;;;27.37;76.58
7376;BME280;3728;42.266;24.944;2023-07-02T12:47:41;98764.31;;;27.80;74.41
7376;BME280;3728;42.266;24.944;2023-07-02T12:50:13;98766.19;;;28.17;68.05
7376;BME280;3728;42.266;24.944;2023-07-02T12:52:42;98761.94;;;28.07;70.03
7376;BME280;3728;42.266;24.944;2023-07-02T12:55:10;98765.31;;;28.20;70.39
7376;BME280;3728;42.266;24.944;2023-07-02T12:57:37;98771.22;;;28.62;63.40
7376;BME280;3728;42.266;24.944;2023-07-02T13:00:06;98767.03;;;28.61;63.26
7376;BME280;3728;42.266;24.944;2023-07-02T13:02:35;98772.31;;;28.52;65.86
7376;BME280;3728;42.266;24.944;2023-07-02T13:05:19;98766.41;;;28.23;66.44
7376;BME280;3728;42.266;24.944;2023-07-02T13:07:50;98765.69;;;27.97;67.11
7376;BME280;3728;42.266;24.944;2023-07-02T13:10:18;98764.28;;;28.05;68.28
7376;BME280;3728;42.266;24.944;2023-07-02T13:12:58;98759.16;;;27.73;71.15
7376;BME280;3728;42.266;24.944;2023-07-02T13:15:48;98754.84;;;27.75;68.86
7376;BME280;3728;42.266;24.944;2023-07-02T13:18:18;98752.25;;;27.85;67.05
7376;BME280;3728;42.266;24.944;2023-07-02T13:20:50;98760.47;;;27.68;64.75
7376;BME280;3728;42.266;24.944;2023-07-02T13:23:32;98767.19;;;28.11;59.38
7376;BME280;3728;42.266;24.944;2023-07-02T13:26:04;98774.31;;;28.05;59.81
7376;BME280;3728;42.266;24.944;2023-07-02T13:28:38;98763.53;;;27.92;60.92
7376;BME280;3728;42.266;24.944;2023-07-02T13:31:10;98762.41;;;28.15;62.54